Satu Mare, Romania
Current Conditions -  °F | °C
As of 7:30 AM on Sunday 26 Oct 2014 (Local Time) from LRSM Reporting Station
Clear Clear  
Wind Chill: 25°   Ceiling: Unl
Heat Index: 30°   Visibility: 6mi
Dew Point: 27°   Wind: 5mph
Humidity: 86%   Direction: 100°E
Pressure: 30.39"   Gusts: NA
Location:  47.79°N, 22.89°E
Report Text: LRSM 260430Z AUTO 10004KT 9999 NCD M01/M03 Q1029
Loading
Personal Weather Stations






























Interactive Weather Map
Tropical Storm Tracking
New forecast layout! Learn more

10-Day Weather Forecast

Advertisements
Track Severe Weather on mobile